sensor_id;sensor_type;location;lat;lon;timestamp;P1;durP1;ratioP1;P2;durP2;ratioP2
18336;SDS011;9294;51.106;7.028;2023-01-01T00:01:42;13.55;;;7.90;;
18336;SDS011;9294;51.106;7.028;2023-01-01T00:04:10;9.75;;;8.70;;
18336;SDS011;9294;51.106;7.028;2023-01-01T00:06:38;8.68;;;7.88;;
18336;SDS011;9294;51.106;7.028;2023-01-01T00:09:05;11.38;;;9.10;;
18336;SDS011;9294;51.106;7.028;2023-01-01T00:11:50;9.60;;;8.43;;
18336;SDS011;9294;51.106;7.028;2023-01-01T00:14:18;11.52;;;7.20;;
18336;SDS011;9294;51.106;7.028;2023-01-01T00:16:44;10.68;;;7.93;;
18336;SDS011;9294;51.106;7.028;2023-01-01T00:19:11;12.70;;;8.68;;
18336;SDS011;9294;51.106;7.028;2023-01-01T00:21:38;9.50;;;8.48;;
18336;SDS011;9294;51.106;7.028;2023-01-01T00:24:05;13.48;;;8.98;;
18336;SDS011;9294;51.106;7.028;2023-01-01T00:26:32;13.43;;;8.63;;
18336;SDS011;9294;51.106;7.028;2023-01-01T00:28:59;13.43;;;8.38;;
18336;SDS011;9294;51.106;7.028;2023-01-01T00:31:27;9.25;;;8.48;;
18336;SDS011;9294;51.106;7.028;2023-01-01T00:33:54;9.60;;;8.80;;
18336;SDS011;9294;51.106;7.028;2023-01-01T00:36:22;9.55;;;8.45;;
18336;SDS011;9294;51.106;7.028;2023-01-01T00:38:51;9.43;;;8.63;;
18336;SDS011;9294;51.106;7.028;2023-01-01T00:41:18;9.93;;;8.95;;
18336;SDS011;9294;51.106;7.028;2023-01-01T00:43:45;10.80;;;9.90;;
18336;SDS011;9294;51.106;7.028;2023-01-01T00:46:12;10.50;;;9.60;;
18336;SDS011;9294;51.106;7.028;2023-01-01T00:48:41;10.57;;;9.77;;
18336;SDS011;9294;51.106;7.028;2023-01-01T00:51:08;10.88;;;9.98;;
18336;SDS011;9294;51.106;7.028;2023-01-01T00:53:34;10.85;;;9.73;;
18336;SDS011;9294;51.106;7.028;2023-01-01T00:56:01;11.60;;;10.45;;
18336;SDS011;9294;51.106;7.028;2023-01-01T00:58:28;11.48;;;10.40;;
18336;SDS011;9294;51.106;7.028;2023-01-01T01:00:55;10.90;;;9.90;;
18336;SDS011;9294;51.106;7.028;2023-01-01T01:03:22;11.45;;;10.18;;
18336;SDS011;9294;51.106;7.028;2023-01-01T01:05:57;12.02;;;10.95;;
18336;SDS011;9294;51.106;7.028;2023-01-01T01:08:33;11.60;;;10.70;;
18336;SDS011;9294;51.106;7.028;2023-01-01T01:11:03;12.00;;;10.90;;
18336;SDS011;9294;51.106;7.028;2023-01-01T01:13:30;14.35;;;10.75;;
18336;SDS011;9294;51.106;7.028;2023-01-01T01:15:57;11.30;;;10.38;;
18336;SDS011;9294;51.106;7.028;2023-01-01T01:18:23;11.45;;;10.35;;
18336;SDS011;9294;51.106;7.028;2023-01-01T01:20:50;12.43;;;11.20;;
18336;SDS011;9294;51.106;7.028;2023-01-01T01:23:19;11.95;;;10.93;;
18336;SDS011;9294;51.106;7.028;2023-01-01T01:25:46;12.00;;;10.90;;
18336;SDS011;9294;51.106;7.028;2023-01-01T01:28:13;12.00;;;10.80;;
18336;SDS011;9294;51.106;7.028;2023-01-01T01:30:40;12.45;;;11.25;;
18336;SDS011;9294;51.106;7.028;2023-01-01T01:33:07;11.98;;;10.95;;
18336;SDS011;9294;51.106;7.028;2023-01-01T01:35:33;12.85;;;11.75;;
18336;SDS011;9294;51.106;7.028;2023-01-01T01:38:00;13.80;;;12.38;;
18336;SDS011;9294;51.106;7.028;2023-01-01T01:40:28;12.60;;;11.50;;
18336;SDS011;9294;51.106;7.028;2023-01-01T01:42:55;11.52;;;10.63;;
18336;SDS011;9294;51.106;7.028;2023-01-01T01:45:22;12.73;;;11.73;;
18336;SDS011;9294;51.106;7.028;2023-01-01T01:47:49;11.63;;;10.65;;
18336;SDS011;9294;51.106;7.028;2023-01-01T01:50:20;12.52;;;11.32;;
18336;SDS011;9294;51.106;7.028;2023-01-01T01:52:54;13.00;;;11.57;;
18336;SDS011;9294;51.106;7.028;2023-01-01T01:55:28;12.15;;;11.05;;
18336;SDS011;9294;51.106;7.028;2023-01-01T01:57:57;12.10;;;11.10;;
18336;SDS011;9294;51.106;7.028;2023-01-01T02:00:24;12.57;;;11.57;;
18336;SDS011;9294;51.106;7.028;2023-01-01T02:02:52;12.18;;;11.07;;
18336;SDS011;9294;51.106;7.028;2023-01-01T02:05:21;11.77;;;10.88;;
18336;SDS011;9294;51.106;7.028;2023-01-01T02:07:49;13.00;;;11.90;;
18336;SDS011;9294;51.106;7.028;2023-01-01T02:10:17;11.27;;;10.38;;
18336;SDS011;9294;51.106;7.028;2023-01-01T02:12:46;13.38;;;12.18;;
18336;SDS011;9294;51.106;7.028;2023-01-01T02:15:13;12.77;;;11.70;;
18336;SDS011;9294;51.106;7.028;2023-01-01T02:17:43;12.18;;;11.18;;
18336;SDS011;9294;51.106;7.028;2023-01-01T02:20:27;12.95;;;11.85;;
18336;SDS011;9294;51.106;7.028;2023-01-01T02:25:59;12.18;;;11.18;;
18336;SDS011;9294;51.106;7.028;2023-01-01T02:28:40;12.23;;;11.05;;
18336;SDS011;9294;51.106;7.028;2023-01-01T02:31:13;11.25;;;10.35;;
18336;SDS011;9294;51.106;7.028;2023-01-01T02:33:44;12.38;;;11.25;;
18336;SDS011;9294;51.106;7.028;2023-01-01T02:36:12;11.70;;;10.70;;
18336;SDS011;9294;51.106;7.028;2023-01-01T02:38:40;11.50;;;10.50;;
18336;SDS011;9294;51.106;7.028;2023-01-01T02:41:10;11.55;;;10.45;;
18336;SDS011;9294;51.106;7.028;2023-01-01T02:43:41;11.52;;;10.52;;
18336;SDS011;9294;51.106;7.028;2023-01-01T02:46:09;12.13;;;11.02;;
18336;SDS011;9294;51.106;7.028;2023-01-01T02:48:38;12.68;;;11.63;;
18336;SDS011;9294;51.106;7.028;2023-01-01T02:51:23;11.40;;;10.40;;
18336;SDS011;9294;51.106;7.028;2023-01-01T02:54:00;11.73;;;10.63;;
18336;SDS011;9294;51.106;7.028;2023-01-01T02:56:35;11.55;;;10.55;;
18336;SDS011;9294;51.106;7.028;2023-01-01T02:59:14;12.10;;;11.00;;
18336;SDS011;9294;51.106;7.028;2023-01-01T03:02:03;11.25;;;10.18;;
18336;SDS011;9294;51.106;7.028;2023-01-01T03:04:46;11.55;;;10.65;;
18336;SDS011;9294;51.106;7.028;2023-01-01T03:07:23;12.00;;;11.10;;
18336;SDS011;9294;51.106;7.028;2023-01-01T03:10:06;10.90;;;9.90;;
18336;SDS011;9294;51.106;7.028;2023-01-01T03:12:40;10.65;;;9.75;;
18336;SDS011;9294;51.106;7.028;2023-01-01T03:15:15;11.43;;;10.52;;
18336;SDS011;9294;51.106;7.028;2023-01-01T03:17:49;11.13;;;10.13;;
18336;SDS011;9294;51.106;7.028;2023-01-01T03:20:23;11.10;;;10.10;;
18336;SDS011;9294;51.106;7.028;2023-01-01T03:22:53;10.80;;;9.93;;
18336;SDS011;9294;51.106;7.028;2023-01-01T03:25:24;10.02;;;9.30;;
18336;SDS011;9294;51.106;7.028;2023-01-01T03:27:54;11.38;;;10.38;;
18336;SDS011;9294;51.106;7.028;2023-01-01T03:30:25;10.15;;;9.35;;
18336;SDS011;9294;51.106;7.028;2023-01-01T03:32:54;11.48;;;10.38;;
18336;SDS011;9294;51.106;7.028;2023-01-01T03:35:29;10.30;;;9.40;;
18336;SDS011;9294;51.106;7.028;2023-01-01T03:38:00;9.48;;;8.73;;
18336;SDS011;9294;51.106;7.028;2023-01-01T03:40:28;9.98;;;9.18;;
18336;SDS011;9294;51.106;7.028;2023-01-01T03:43:01;10.63;;;9.73;;
18336;SDS011;9294;51.106;7.028;2023-01-01T03:45:35;10.05;;;9.20;;
18336;SDS011;9294;51.106;7.028;2023-01-01T03:48:05;9.57;;;8.82;;
18336;SDS011;9294;51.106;7.028;2023-01-01T03:50:35;9.77;;;8.98;;
18336;SDS011;9294;51.106;7.028;2023-01-01T03:53:14;10.18;;;9.32;;
18336;SDS011;9294;51.106;7.028;2023-01-01T03:55:48;9.48;;;8.68;;
18336;SDS011;9294;51.106;7.028;2023-01-01T03:58:22;8.98;;;8.27;;
18336;SDS011;9294;51.106;7.028;2023-01-01T04:00:54;10.00;;;8.98;;
18336;SDS011;9294;51.106;7.028;2023-01-01T04:03:27;9.02;;;8.38;;
18336;SDS011;9294;51.106;7.028;2023-01-01T04:05:56;8.75;;;8.15;;
18336;SDS011;9294;51.106;7.028;2023-01-01T04:08:22;8.02;;;7.43;;
18336;SDS011;9294;51.106;7.028;2023-01-01T04:10:50;8.77;;;8.07;;
18336;SDS011;9294;51.106;7.028;2023-01-01T04:13:21;8.90;;;8.20;;
18336;SDS011;9294;51.106;7.028;2023-01-01T04:15:48;8.57;;;7.85;;
18336;SDS011;9294;51.106;7.028;2023-01-01T04:18:17;9.57;;;8.38;;
18336;SDS011;9294;51.106;7.028;2023-01-01T04:20:44;8.77;;;7.93;;
18336;SDS011;9294;51.106;7.028;2023-01-01T04:23:10;8.90;;;8.10;;
18336;SDS011;9294;51.106;7.028;2023-01-01T04:25:37;8.57;;;7.97;;
18336;SDS011;9294;51.106;7.028;2023-01-01T04:28:04;8.70;;;8.10;;
18336;SDS011;9294;51.106;7.028;2023-01-01T04:30:30;8.02;;;7.43;;
18336;SDS011;9294;51.106;7.028;2023-01-01T04:32:57;8.48;;;7.88;;
18336;SDS011;9294;51.106;7.028;2023-01-01T04:35:25;9.38;;;8.63;;
18336;SDS011;9294;51.106;7.028;2023-01-01T04:37:52;8.23;;;7.53;;
18336;SDS011;9294;51.106;7.028;2023-01-01T04:40:19;7.93;;;7.32;;
18336;SDS011;9294;51.106;7.028;2023-01-01T04:42:45;9.02;;;8.25;;
18336;SDS011;9294;51.106;7.028;2023-01-01T04:45:12;7.88;;;7.28;;
18336;SDS011;9294;51.106;7.028;2023-01-01T04:47:39;8.20;;;7.60;;
18336;SDS011;9294;51.106;7.028;2023-01-01T04:50:06;7.97;;;7.38;;
18336;SDS011;9294;51.106;7.028;2023-01-01T04:52:35;7.43;;;6.93;;
18336;SDS011;9294;51.106;7.028;2023-01-01T04:55:02;7.68;;;7.18;;
18336;SDS011;9294;51.106;7.028;2023-01-01T04:57:29;8.10;;;7.55;;
18336;SDS011;9294;51.106;7.028;2023-01-01T04:59:55;7.75;;;7.25;;
18336;SDS011;9294;51.106;7.028;2023-01-01T05:02:22;7.30;;;6.78;;
18336;SDS011;9294;51.106;7.028;2023-01-01T05:04:49;7.15;;;6.65;;
18336;SDS011;9294;51.106;7.028;2023-01-01T05:07:15;8.23;;;7.53;;
18336;SDS011;9294;51.106;7.028;2023-01-01T05:09:43;7.50;;;6.90;;
18336;SDS011;9294;51.106;7.028;2023-01-01T05:12:10;7.28;;;6.65;;
18336;SDS011;9294;51.106;7.028;2023-01-01T05:14:37;6.85;;;6.40;;
18336;SDS011;9294;51.106;7.028;2023-01-01T05:17:03;7.93;;;7.32;;
18336;SDS011;9294;51.106;7.028;2023-01-01T05:19:30;7.88;;;7.28;;
18336;SDS011;9294;51.106;7.028;2023-01-01T05:21:57;6.75;;;6.25;;
18336;SDS011;9294;51.106;7.028;2023-01-01T05:24:23;6.90;;;6.40;;
18336;SDS011;9294;51.106;7.028;2023-01-01T05:26:51;7.95;;;7.35;;
18336;SDS011;9294;51.106;7.028;2023-01-01T05:29:18;7.57;;;6.97;;
18336;SDS011;9294;51.106;7.028;2023-01-01T05:31:48;7.47;;;6.88;;
18336;SDS011;9294;51.106;7.028;2023-01-01T05:34:14;7.13;;;6.47;;
18336;SDS011;9294;51.106;7.028;2023-01-01T05:36:41;6.78;;;6.28;;
18336;SDS011;9294;51.106;7.028;2023-01-01T05:39:08;7.55;;;6.95;;
18336;SDS011;9294;51.106;7.028;2023-01-01T05:41:36;6.82;;;6.32;;
18336;SDS011;9294;51.106;7.028;2023-01-01T05:44:05;6.30;;;5.80;;
18336;SDS011;9294;51.106;7.028;2023-01-01T05:46:33;7.03;;;6.53;;
18336;SDS011;9294;51.106;7.028;2023-01-01T05:48:59;7.03;;;6.47;;
18336;SDS011;9294;51.106;7.028;2023-01-01T05:51:27;6.70;;;6.20;;
18336;SDS011;9294;51.106;7.028;2023-01-01T05:53:55;5.93;;;5.53;;
18336;SDS011;9294;51.106;7.028;2023-01-01T05:56:23;6.72;;;6.22;;
18336;SDS011;9294;51.106;7.028;2023-01-01T05:58:50;6.93;;;6.43;;
18336;SDS011;9294;51.106;7.028;2023-01-01T06:01:18;6.63;;;6.15;;
18336;SDS011;9294;51.106;7.028;2023-01-01T06:03:46;6.55;;;6.05;;
18336;SDS011;9294;51.106;7.028;2023-01-01T06:06:14;6.25;;;5.85;;
18336;SDS011;9294;51.106;7.028;2023-01-01T06:08:42;6.65;;;6.25;;
18336;SDS011;9294;51.106;7.028;2023-01-01T06:11:13;6.38;;;5.93;;
18336;SDS011;9294;51.106;7.028;2023-01-01T06:13:40;6.07;;;5.68;;
18336;SDS011;9294;51.106;7.028;2023-01-01T06:16:06;6.35;;;5.78;;
18336;SDS011;9294;51.106;7.028;2023-01-01T06:18:36;5.78;;;5.38;;
18336;SDS011;9294;51.106;7.028;2023-01-01T06:21:03;5.60;;;5.20;;
18336;SDS011;9294;51.106;7.028;2023-01-01T06:23:31;6.22;;;5.82;;
18336;SDS011;9294;51.106;7.028;2023-01-01T06:26:02;5.53;;;5.22;;
18336;SDS011;9294;51.106;7.028;2023-01-01T06:28:33;6.10;;;5.70;;
18336;SDS011;9294;51.106;7.028;2023-01-01T06:31:00;5.38;;;4.97;;
18336;SDS011;9294;51.106;7.028;2023-01-01T06:33:27;6.10;;;5.60;;
18336;SDS011;9294;51.106;7.028;2023-01-01T06:35:56;5.82;;;5.43;;
18336;SDS011;9294;51.106;7.028;2023-01-01T06:38:23;5.47;;;5.18;;
18336;SDS011;9294;51.106;7.028;2023-01-01T06:40:56;5.47;;;5.18;;
18336;SDS011;9294;51.106;7.028;2023-01-01T06:43:23;5.85;;;5.45;;
18336;SDS011;9294;51.106;7.028;2023-01-01T06:46:00;5.85;;;5.45;;
18336;SDS011;9294;51.106;7.028;2023-01-01T06:48:28;5.03;;;4.72;;
18336;SDS011;9294;51.106;7.028;2023-01-01T06:50:56;5.28;;;4.88;;
18336;SDS011;9294;51.106;7.028;2023-01-01T06:53:24;5.13;;;4.78;;
18336;SDS011;9294;51.106;7.028;2023-01-01T06:55:51;4.70;;;4.40;;
18336;SDS011;9294;51.106;7.028;2023-01-01T06:58:18;4.90;;;4.60;;
18336;SDS011;9294;51.106;7.028;2023-01-01T07:00:45;4.47;;;4.18;;
18336;SDS011;9294;51.106;7.028;2023-01-01T07:03:11;4.70;;;4.40;;
18336;SDS011;9294;51.106;7.028;2023-01-01T07:05:38;4.60;;;4.30;;
18336;SDS011;9294;51.106;7.028;2023-01-01T07:08:06;4.72;;;4.43;;
18336;SDS011;9294;51.106;7.028;2023-01-01T07:10:33;5.40;;;5.00;;
18336;SDS011;9294;51.106;7.028;2023-01-01T07:13:00;4.80;;;4.50;;
18336;SDS011;9294;51.106;7.028;2023-01-01T07:15:26;4.40;;;4.13;;
18336;SDS011;9294;51.106;7.028;2023-01-01T07:17:53;4.72;;;4.43;;
18336;SDS011;9294;51.106;7.028;2023-01-01T07:20:20;4.75;;;4.45;;
18336;SDS011;9294;51.106;7.028;2023-01-01T07:22:46;3.95;;;3.75;;
18336;SDS011;9294;51.106;7.028;2023-01-01T07:25:14;4.00;;;3.78;;
18336;SDS011;9294;51.106;7.028;2023-01-01T07:27:41;4.50;;;4.20;;
18336;SDS011;9294;51.106;7.028;2023-01-01T07:30:08;4.45;;;4.15;;
18336;SDS011;9294;51.106;7.028;2023-01-01T07:32:35;4.22;;;3.88;;
18336;SDS011;9294;51.106;7.028;2023-01-01T07:35:02;4.35;;;4.15;;
18336;SDS011;9294;51.106;7.028;2023-01-01T07:37:29;4.00;;;3.80;;
18336;SDS011;9294;51.106;7.028;2023-01-01T07:39:55;3.97;;;3.78;;
18336;SDS011;9294;51.106;7.028;2023-01-01T07:42:23;3.80;;;3.60;;
18336;SDS011;9294;51.106;7.028;2023-01-01T07:44:50;3.70;;;3.50;;
18336;SDS011;9294;51.106;7.028;2023-01-01T07:47:17;4.32;;;4.03;;
18336;SDS011;9294;51.106;7.028;2023-01-01T07:49:47;4.95;;;4.65;;
18336;SDS011;9294;51.106;7.028;2023-01-01T07:52:13;4.43;;;4.03;;
18336;SDS011;9294;51.106;7.028;2023-01-01T07:54:40;3.80;;;3.55;;
18336;SDS011;9294;51.106;7.028;2023-01-01T07:57:07;12.65;;;12.07;;
18336;SDS011;9294;51.106;7.028;2023-01-01T07:59:35;15.95;;;12.48;;
18336;SDS011;9294;51.106;7.028;2023-01-01T08:02:02;5.13;;;4.40;;
18336;SDS011;9294;51.106;7.028;2023-01-01T08:04:29;3.60;;;3.30;;
18336;SDS011;9294;51.106;7.028;2023-01-01T08:06:56;4.25;;;3.90;;
18336;SDS011;9294;51.106;7.028;2023-01-01T08:09:22;9.85;;;5.05;;
18336;SDS011;9294;51.106;7.028;2023-01-01T08:11:49;4.53;;;4.13;;
18336;SDS011;9294;51.106;7.028;2023-01-01T08:14:17;4.85;;;4.43;;
18336;SDS011;9294;51.106;7.028;2023-01-01T08:16:45;4.80;;;4.50;;
18336;SDS011;9294;51.106;7.028;2023-01-01T08:19:11;4.63;;;4.03;;
18336;SDS011;9294;51.106;7.028;2023-01-01T08:21:38;11.20;;;4.90;;
18336;SDS011;9294;51.106;7.028;2023-01-01T08:24:05;4.47;;;4.13;;
18336;SDS011;9294;51.106;7.028;2023-01-01T08:26:33;5.03;;;4.45;;
18336;SDS011;9294;51.106;7.028;2023-01-01T08:29:01;4.00;;;3.75;;
18336;SDS011;9294;51.106;7.028;2023-01-01T08:31:29;4.88;;;4.32;;
18336;SDS011;9294;51.106;7.028;2023-01-01T08:33:58;4.38;;;4.03;;
18336;SDS011;9294;51.106;7.028;2023-01-01T08:36:24;4.50;;;4.10;;
18336;SDS011;9294;51.106;7.028;2023-01-01T08:38:51;4.60;;;4.30;;
18336;SDS011;9294;51.106;7.028;2023-01-01T08:41:18;5.25;;;4.95;;
18336;SDS011;9294;51.106;7.028;2023-01-01T08:43:44;4.75;;;4.45;;
18336;SDS011;9294;51.106;7.028;2023-01-01T08:46:11;4.13;;;3.78;;
18336;SDS011;9294;51.106;7.028;2023-01-01T08:48:38;4.72;;;4.43;;
18336;SDS011;9294;51.106;7.028;2023-01-01T08:51:06;4.57;;;4.38;;
18336;SDS011;9294;51.106;7.028;2023-01-01T08:53:34;5.57;;;5.05;;
18336;SDS011;9294;51.106;7.028;2023-01-01T08:56:01;6.07;;;5.63;;
18336;SDS011;9294;51.106;7.028;2023-01-01T08:58:29;10.90;;;7.18;;
18336;SDS011;9294;51.106;7.028;2023-01-01T09:00:56;29.75;;;17.95;;
18336;SDS011;9294;51.106;7.028;2023-01-01T09:03:23;29.80;;;16.63;;
18336;SDS011;9294;51.106;7.028;2023-01-01T09:05:50;22.75;;;12.05;;
18336;SDS011;9294;51.106;7.028;2023-01-01T09:08:19;22.17;;;13.38;;
18336;SDS011;9294;51.106;7.028;2023-01-01T09:10:46;30.58;;;14.93;;
18336;SDS011;9294;51.106;7.028;2023-01-01T09:13:14;14.63;;;8.88;;
18336;SDS011;9294;51.106;7.028;2023-01-01T09:15:43;23.90;;;12.93;;
18336;SDS011;9294;51.106;7.028;2023-01-01T09:18:10;20.23;;;13.45;;
18336;SDS011;9294;51.106;7.028;2023-01-01T09:20:37;24.67;;;13.77;;
18336;SDS011;9294;51.106;7.028;2023-01-01T09:23:04;29.02;;;13.98;;
18336;SDS011;9294;51.106;7.028;2023-01-01T09:25:33;26.40;;;13.88;;
18336;SDS011;9294;51.106;7.028;2023-01-01T09:28:00;23.75;;;13.70;;
18336;SDS011;9294;51.106;7.028;2023-01-01T09:30:28;24.98;;;12.73;;
18336;SDS011;9294;51.106;7.028;2023-01-01T09:32:55;20.17;;;12.60;;
18336;SDS011;9294;51.106;7.028;2023-01-01T09:35:21;20.00;;;11.45;;
18336;SDS011;9294;51.106;7.028;2023-01-01T09:37:48;14.82;;;10.98;;
18336;SDS011;9294;51.106;7.028;2023-01-01T09:40:20;16.10;;;10.80;;
18336;SDS011;9294;51.106;7.028;2023-01-01T09:42:56;17.23;;;10.18;;
18336;SDS011;9294;51.106;7.028;2023-01-01T09:45:29;16.02;;;9.88;;
18336;SDS011;9294;51.106;7.028;2023-01-01T09:48:02;15.38;;;10.02;;
18336;SDS011;9294;51.106;7.028;2023-01-01T09:50:33;15.57;;;9.13;;
18336;SDS011;9294;51.106;7.028;2023-01-01T09:53:02;16.08;;;9.88;;
18336;SDS011;9294;51.106;7.028;2023-01-01T09:55:33;11.05;;;8.55;;
18336;SDS011;9294;51.106;7.028;2023-01-01T09:58:08;14.05;;;8.20;;
18336;SDS011;9294;51.106;7.028;2023-01-01T10:00:36;11.55;;;7.90;;
18336;SDS011;9294;51.106;7.028;2023-01-01T10:03:13;13.38;;;7.90;;
18336;SDS011;9294;51.106;7.028;2023-01-01T10:05:50;15.70;;;8.98;;
18336;SDS011;9294;51.106;7.028;2023-01-01T10:08:27;8.70;;;7.75;;
18336;SDS011;9294;51.106;7.028;2023-01-01T10:11:04;12.15;;;8.00;;
18336;SDS011;9294;51.106;7.028;2023-01-01T10:13:39;10.70;;;7.95;;
18336;SDS011;9294;51.106;7.028;2023-01-01T10:16:09;9.88;;;7.80;;
18336;SDS011;9294;51.106;7.028;2023-01-01T10:18:42;8.50;;;7.60;;
18336;SDS011;9294;51.106;7.028;2023-01-01T10:21:12;9.30;;;7.18;;
18336;SDS011;9294;51.106;7.028;2023-01-01T10:23:42;10.73;;;6.82;;
18336;SDS011;9294;51.106;7.028;2023-01-01T10:26:11;8.73;;;7.03;;
18336;SDS011;9294;51.106;7.028;2023-01-01T10:28:44;10.02;;;6.70;;
18336;SDS011;9294;51.106;7.028;2023-01-01T10:31:17;7.63;;;6.82;;
18336;SDS011;9294;51.106;7.028;2023-01-01T10:33:45;7.90;;;6.30;;
18336;SDS011;9294;51.106;7.028;2023-01-01T10:36:13;8.00;;;6.38;;
18336;SDS011;9294;51.106;7.028;2023-01-01T10:38:44;9.10;;;6.45;;
18336;SDS011;9294;51.106;7.028;2023-01-01T10:41:11;10.90;;;6.35;;
18336;SDS011;9294;51.106;7.028;2023-01-01T10:43:39;6.78;;;6.07;;
18336;SDS011;9294;51.106;7.028;2023-01-01T10:46:08;9.52;;;6.43;;
18336;SDS011;9294;51.106;7.028;2023-01-01T10:48:38;7.00;;;5.63;;
18336;SDS011;9294;51.106;7.028;2023-01-01T10:51:06;9.20;;;6.72;;
18336;SDS011;9294;51.106;7.028;2023-01-01T10:53:40;7.45;;;6.25;;
18336;SDS011;9294;51.106;7.028;2023-01-01T10:56:09;8.30;;;5.93;;
18336;SDS011;9294;51.106;7.028;2023-01-01T10:58:38;7.47;;;6.13;;
18336;SDS011;9294;51.106;7.028;2023-01-01T11:01:09;7.13;;;6.35;;
18336;SDS011;9294;51.106;7.028;2023-01-01T11:03:37;9.45;;;6.43;;
18336;SDS011;9294;51.106;7.028;2023-01-01T11:06:19;6.90;;;5.80;;
18336;SDS011;9294;51.106;7.028;2023-01-01T11:08:48;6.65;;;6.00;;
18336;SDS011;9294;51.106;7.028;2023-01-01T11:11:18;6.22;;;5.63;;
18336;SDS011;9294;51.106;7.028;2023-01-01T11:13:48;6.18;;;5.55;;
18336;SDS011;9294;51.106;7.028;2023-01-01T11:16:17;5.82;;;5.32;;
18336;SDS011;9294;51.106;7.028;2023-01-01T11:18:44;6.13;;;5.53;;
18336;SDS011;9294;51.106;7.028;2023-01-01T11:21:17;6.80;;;5.70;;
18336;SDS011;9294;51.106;7.028;2023-01-01T11:23:45;5.90;;;5.22;;
18336;SDS011;9294;51.106;7.028;2023-01-01T11:26:18;9.40;;;5.93;;
18336;SDS011;9294;51.106;7.028;2023-01-01T11:28:57;6.88;;;5.18;;
18336;SDS011;9294;51.106;7.028;2023-01-01T11:31:28;7.78;;;5.65;;
18336;SDS011;9294;51.106;7.028;2023-01-01T11:33:58;6.82;;;5.03;;
18336;SDS011;9294;51.106;7.028;2023-01-01T11:36:26;5.63;;;5.10;;
18336;SDS011;9294;51.106;7.028;2023-01-01T11:39:06;5.72;;;5.05;;
18336;SDS011;9294;51.106;7.028;2023-01-01T11:41:47;5.55;;;5.05;;
18336;SDS011;9294;51.106;7.028;2023-01-01T11:44:22;6.05;;;5.03;;
18336;SDS011;9294;51.106;7.028;2023-01-01T11:46:56;6.20;;;4.65;;
18336;SDS011;9294;51.106;7.028;2023-01-01T11:49:24;4.85;;;4.35;;
18336;SDS011;9294;51.106;7.028;2023-01-01T11:51:52;4.28;;;3.97;;
18336;SDS011;9294;51.106;7.028;2023-01-01T11:54:22;5.05;;;4.45;;
18336;SDS011;9294;51.106;7.028;2023-01-01T11:56:52;6.32;;;5.05;;
18336;SDS011;9294;51.106;7.028;2023-01-01T11:59:22;4.70;;;4.30;;
18336;SDS011;9294;51.106;7.028;2023-01-01T12:01:53;4.88;;;4.38;;
18336;SDS011;9294;51.106;7.028;2023-01-01T12:04:25;5.22;;;4.72;;
18336;SDS011;9294;51.106;7.028;2023-01-01T12:06:56;6.03;;;4.47;;
18336;SDS011;9294;51.106;7.028;2023-01-01T12:09:28;5.43;;;4.82;;
18336;SDS011;9294;51.106;7.028;2023-01-01T12:12:01;4.85;;;4.38;;
18336;SDS011;9294;51.106;7.028;2023-01-01T12:14:33;5.07;;;4.18;;
18336;SDS011;9294;51.106;7.028;2023-01-01T12:17:09;5.65;;;4.18;;
18336;SDS011;9294;51.106;7.028;2023-01-01T12:19:44;5.20;;;4.30;;
18336;SDS011;9294;51.106;7.028;2023-01-01T12:22:20;4.40;;;4.00;;
18336;SDS011;9294;51.106;7.028;2023-01-01T12:24:48;6.80;;;4.25;;
18336;SDS011;9294;51.106;7.028;2023-01-01T12:27:17;4.47;;;4.18;;
18336;SDS011;9294;51.106;7.028;2023-01-01T12:30:03;4.78;;;3.65;;
18336;SDS011;9294;51.106;7.028;2023-01-01T12:32:41;5.63;;;4.38;;
18336;SDS011;9294;51.106;7.028;2023-01-01T12:35:20;4.53;;;4.07;;
18336;SDS011;9294;51.106;7.028;2023-01-01T12:37:58;4.55;;;3.53;;
18336;SDS011;9294;51.106;7.028;2023-01-01T12:40:42;4.70;;;4.05;;
18336;SDS011;9294;51.106;7.028;2023-01-01T12:43:15;5.60;;;4.30;;
18336;SDS011;9294;51.106;7.028;2023-01-01T12:45:51;5.30;;;3.58;;
18336;SDS011;9294;51.106;7.028;2023-01-01T12:48:44;4.20;;;3.83;;
18336;SDS011;9294;51.106;7.028;2023-01-01T12:51:24;3.90;;;3.50;;
18336;SDS011;9294;51.106;7.028;2023-01-01T12:54:00;4.72;;;4.03;;
18336;SDS011;9294;51.106;7.028;2023-01-01T12:56:41;3.88;;;3.53;;
18336;SDS011;9294;51.106;7.028;2023-01-01T12:59:15;3.70;;;3.40;;
18336;SDS011;9294;51.106;7.028;2023-01-01T13:01:46;4.30;;;3.90;;
18336;SDS011;9294;51.106;7.028;2023-01-01T13:04:18;4.07;;;3.67;;
18336;SDS011;9294;51.106;7.028;2023-01-01T13:06:46;3.90;;;3.55;;
18336;SDS011;9294;51.106;7.028;2023-01-01T13:09:16;4.10;;;3.80;;
18336;SDS011;9294;51.106;7.028;2023-01-01T13:11:45;3.88;;;3.50;;
18336;SDS011;9294;51.106;7.028;2023-01-01T13:14:29;4.18;;;3.40;;
18336;SDS011;9294;51.106;7.028;2023-01-01T13:16:56;4.28;;;3.85;;
18336;SDS011;9294;51.106;7.028;2023-01-01T13:19:25;3.70;;;3.33;;
18336;SDS011;9294;51.106;7.028;2023-01-01T13:22:26;3.60;;;3.30;;
18336;SDS011;9294;51.106;7.028;2023-01-01T13:25:04;3.60;;;3.30;;
18336;SDS011;9294;51.106;7.028;2023-01-01T13:30:46;3.97;;;3.03;;
18336;SDS011;9294;51.106;7.028;2023-01-01T13:33:17;3.55;;;3.25;;
18336;SDS011;9294;51.106;7.028;2023-01-01T13:38:52;3.50;;;3.22;;
18336;SDS011;9294;51.106;7.028;2023-01-01T13:41:32;3.45;;;3.20;;
18336;SDS011;9294;51.106;7.028;2023-01-01T13:44:15;3.92;;;3.55;;
18336;SDS011;9294;51.106;7.028;2023-01-01T13:46:48;3.15;;;2.95;;
18336;SDS011;9294;51.106;7.028;2023-01-01T13:49:25;7.40;;;3.65;;
18336;SDS011;9294;51.106;7.028;2023-01-01T13:52:05;3.80;;;3.10;;
18336;SDS011;9294;51.106;7.028;2023-01-01T13:54:58;3.78;;;3.20;;
18336;SDS011;9294;51.106;7.028;2023-01-01T13:57:52;6.40;;;3.65;;
18336;SDS011;9294;51.106;7.028;2023-01-01T14:00:54;5.65;;;3.30;;
18336;SDS011;9294;51.106;7.028;2023-01-01T14:03:33;3.70;;;2.80;;
18336;SDS011;9294;51.106;7.028;2023-01-01T14:06:03;6.03;;;3.25;;
18336;SDS011;9294;51.106;7.028;2023-01-01T14:08:36;4.80;;;3.08;;
18336;SDS011;9294;51.106;7.028;2023-01-01T14:11:16;4.22;;;3.33;;
18336;SDS011;9294;51.106;7.028;2023-01-01T14:13:44;3.97;;;3.15;;
18336;SDS011;9294;51.106;7.028;2023-01-01T14:16:11;3.17;;;2.97;;
18336;SDS011;9294;51.106;7.028;2023-01-01T14:18:40;3.83;;;3.33;;
18336;SDS011;9294;51.106;7.028;2023-01-01T14:21:10;4.25;;;3.50;;
18336;SDS011;9294;51.106;7.028;2023-01-01T14:23:39;3.50;;;3.30;;
18336;SDS011;9294;51.106;7.028;2023-01-01T14:26:09;4.10;;;3.70;;
18336;SDS011;9294;51.106;7.028;2023-01-01T14:28:39;9.43;;;3.20;;
18336;SDS011;9294;51.106;7.028;2023-01-01T14:31:08;6.25;;;3.13;;
18336;SDS011;9294;51.106;7.028;2023-01-01T14:33:37;4.88;;;3.55;;
18336;SDS011;9294;51.106;7.028;2023-01-01T14:36:05;6.30;;;3.40;;
18336;SDS011;9294;51.106;7.028;2023-01-01T14:38:41;10.50;;;4.05;;
18336;SDS011;9294;51.106;7.028;2023-01-01T14:41:10;4.10;;;3.63;;
18336;SDS011;9294;51.106;7.028;2023-01-01T14:43:44;4.70;;;3.80;;
18336;SDS011;9294;51.106;7.028;2023-01-01T14:46:13;3.28;;;3.00;;
18336;SDS011;9294;51.106;7.028;2023-01-01T14:48:42;4.10;;;3.33;;
18336;SDS011;9294;51.106;7.028;2023-01-01T14:51:12;3.88;;;3.58;;
18336;SDS011;9294;51.106;7.028;2023-01-01T14:53:40;5.07;;;3.67;;
18336;SDS011;9294;51.106;7.028;2023-01-01T14:56:08;16.85;;;3.70;;
18336;SDS011;9294;51.106;7.028;2023-01-01T14:58:35;3.25;;;3.00;;
18336;SDS011;9294;51.106;7.028;2023-01-01T15:01:16;3.60;;;3.30;;
18336;SDS011;9294;51.106;7.028;2023-01-01T15:03:53;7.90;;;4.40;;
18336;SDS011;9294;51.106;7.028;2023-01-01T15:06:24;5.60;;;4.63;;
18336;SDS011;9294;51.106;7.028;2023-01-01T15:08:51;7.40;;;5.65;;
18336;SDS011;9294;51.106;7.028;2023-01-01T15:11:18;5.00;;;4.25;;
18336;SDS011;9294;51.106;7.028;2023-01-01T15:13:53;8.70;;;4.70;;
18336;SDS011;9294;51.106;7.028;2023-01-01T15:16:23;7.38;;;4.95;;
18336;SDS011;9294;51.106;7.028;2023-01-01T15:18:50;5.55;;;4.25;;
18336;SDS011;9294;51.106;7.028;2023-01-01T15:21:25;6.50;;;4.30;;